Terminal Aerodrome Forecast
Issued by NWS Mobile, AL

Home | Current Version | Previous Version | Text Only | Print | Product List | Glossary On
Versions: 1 2 3 4 5 6 7 8 9 10 11 12
000
FTUS44 KMOB 211124
TAFMOB
TAF
KMOB 211124Z 2112/2212 08006KT P6SM FEW025 BKN250
     FM211500 11009KT P6SM SCT025 BKN050
     FM212100 12014KT P6SM VCSH SCT025 OVC050
     FM220900 11008KT 5SM BR BKN025 BKN250=

USA.gov is the U.S. government's official web portal to all federal, state and local government web resources and services.